createdAt,value
2022-12-28T00:00:48.748Z,99403.66
2022-12-28T00:01:50.600Z,99397.84
2022-12-28T00:02:53.442Z,99395.38
2022-12-28T00:03:56.138Z,99400.63
2022-12-28T00:05:00.121Z,99395.63
2022-12-28T00:06:02.195Z,99396.69
2022-12-28T00:07:05.050Z,99394.13
2022-12-28T00:08:07.251Z,99389.97
2022-12-28T00:09:12.022Z,99385.75
2022-12-28T00:10:13.963Z,99389.22
2022-12-28T00:11:26.512Z,99386.72
2022-12-28T00:12:33.084Z,99394.44
2022-12-28T00:13:35.888Z,99387.56
2022-12-28T00:14:38.711Z,99392.69
2022-12-28T00:15:40.510Z,99394.34
2022-12-28T00:16:45.314Z,99385.66
2022-12-28T00:17:47.088Z,99391.56
2022-12-28T00:18:49.852Z,99393.22
2022-12-28T00:19:52.709Z,99388.78
2022-12-28T00:20:58.135Z,99393.81
2022-12-28T00:22:00.987Z,99393.72
2022-12-28T00:23:04.993Z,99396.16
2022-12-28T00:24:08.607Z,99390.91
2022-12-28T00:25:10.696Z,99389.97
2022-12-28T00:26:14.723Z,99391.56
2022-12-28T00:27:17.556Z,99395.72
2022-12-28T00:28:19.848Z,99396.47
2022-12-28T00:29:23.073Z,99398.09
2022-12-28T00:30:25.143Z,99394.56
2022-12-28T00:31:28.026Z,99393.63
2022-12-28T00:32:32.219Z,99396.91
2022-12-28T00:33:35.064Z,99393.44
2022-12-28T00:34:36.899Z,99389.91
2022-12-28T00:35:43.301Z,99394.94
2022-12-28T00:37:08.484Z,99396.63
2022-12-28T00:38:07.802Z,99389.72
2022-12-28T00:39:10.622Z,99399.97
2022-12-28T00:40:16.442Z,99397.34
2022-12-28T00:41:23.221Z,99393.88
2022-12-28T00:42:26.074Z,99394.63
2022-12-28T00:43:28.217Z,99395.47
2022-12-28T00:44:31.146Z,99392.78
2022-12-28T00:45:35.900Z,99393.63
2022-12-28T00:46:38.735Z,99391.81
2022-12-28T00:47:41.940Z,99392.59
2022-12-28T00:48:44.994Z,99394.28
2022-12-28T00:49:46.895Z,99399.34
2022-12-28T00:50:49.756Z,99397.63
2022-12-28T00:51:51.670Z,99398.41
2022-12-28T00:52:54.417Z,99397.50
2022-12-28T00:53:56.306Z,99395.78
2022-12-28T00:54:59.407Z,99400.91
2022-12-28T00:56:05.986Z,99403.44
2022-12-28T00:57:08.813Z,99400.84
2022-12-28T00:58:10.811Z,99399.13
2022-12-28T00:59:13.657Z,99399.94
2022-12-28T01:00:16.470Z,99397.34
2022-12-28T01:01:21.964Z,99401.66
2022-12-28T01:02:25.535Z,99406.84
2022-12-28T01:03:29.705Z,99401.69
2022-12-28T01:04:32.952Z,99403.44
2022-12-28T01:05:35.716Z,99394.03
2022-12-28T01:06:37.454Z,99395.78
2022-12-28T01:07:40.568Z,99402.66
2022-12-28T01:08:42.735Z,99396.75
2022-12-28T01:09:47.095Z,99394.28
2022-12-28T01:10:49.240Z,99402.94
2022-12-28T01:11:52.062Z,99397.09
2022-12-28T01:12:54.342Z,99393.78
2022-12-28T01:13:58.443Z,99393.06
2022-12-28T01:15:00.241Z,99395.88
2022-12-28T01:16:11.473Z,99393.56
2022-12-28T01:17:14.798Z,99398.16
2022-12-28T01:18:18.553Z,99394.13
2022-12-28T01:19:23.930Z,99392.63
2022-12-28T01:20:25.869Z,99395.47
2022-12-28T01:21:31.054Z,99390.56
2022-12-28T01:22:32.960Z,99386.63
2022-12-28T01:23:35.806Z,99385.97
2022-12-28T01:24:37.629Z,99388.78
2022-12-28T01:25:40.645Z,99387.34
2022-12-28T01:26:42.552Z,99399.63
2022-12-28T01:27:45.331Z,99389.63
2022-12-28T01:28:47.373Z,99398.44
2022-12-28T01:29:50.591Z,99393.50
2022-12-28T01:30:52.411Z,99395.47
2022-12-28T01:31:55.985Z,99392.19
2022-12-28T01:32:59.089Z,99393.28
2022-12-28T01:34:02.173Z,99388.34
2022-12-28T01:35:06.487Z,99391.97
2022-12-28T01:36:12.223Z,99390.44
2022-12-28T01:37:14.027Z,99398.31
2022-12-28T01:38:16.816Z,99400.16
2022-12-28T01:39:18.827Z,99396.91
2022-12-28T01:40:21.623Z,99395.41
2022-12-28T01:41:24.010Z,99390.41
2022-12-28T01:42:27.141Z,99387.97
2022-12-28T01:43:38.001Z,99382.06
2022-12-28T01:44:46.547Z,99382.28
2022-12-28T01:45:51.583Z,99389.22
2022-12-28T01:46:56.422Z,99382.50
2022-12-28T01:47:58.291Z,99390.34
2022-12-28T01:49:04.487Z,99388.78
2022-12-28T01:50:11.910Z,99382.06
2022-12-28T01:51:15.550Z,99382.19
2022-12-28T01:52:21.328Z,99380.59
2022-12-28T01:53:25.280Z,99376.38
2022-12-28T01:54:33.489Z,99376.41
2022-12-28T01:55:37.355Z,99381.59
2022-12-28T01:56:39.780Z,99379.91
2022-12-28T01:57:45.413Z,99385.84
2022-12-28T01:58:48.264Z,99383.28
2022-12-28T01:59:54.403Z,99388.44
2022-12-28T02:00:56.342Z,99380.75
2022-12-28T02:01:59.617Z,99383.31
2022-12-28T02:03:04.734Z,99377.34
2022-12-28T02:04:07.588Z,99379.97
2022-12-28T02:05:11.555Z,99374.84
2022-12-28T02:06:15.044Z,99372.34
2022-12-28T02:07:20.028Z,99374.13
2022-12-28T02:08:25.369Z,99375.03
2022-12-28T02:09:30.723Z,99364.84
2022-12-28T02:10:43.778Z,99365.81
2022-12-28T02:11:48.618Z,99360.97
2022-12-28T02:12:52.303Z,99362.03
2022-12-28T02:13:56.068Z,99364.84
2022-12-28T02:14:59.279Z,99356.50
2022-12-28T02:16:02.116Z,99359.31
2022-12-28T02:17:04.086Z,99353.47
2022-12-28T02:18:07.993Z,99355.31
2022-12-28T02:19:14.344Z,99355.50
2022-12-28T02:20:20.082Z,99357.34
2022-12-28T02:21:26.254Z,99352.38
2022-12-28T02:23:07.489Z,99356.00
2022-12-28T02:24:47.423Z,99358.81
2022-12-28T02:26:27.637Z,99356.47
2022-12-28T02:27:37.071Z,99355.78
2022-12-28T02:29:26.772Z,99361.00
2022-12-28T02:30:31.935Z,99356.06
2022-12-28T02:31:37.249Z,99360.47
2022-12-28T02:32:53.380Z,99356.31
2022-12-28T02:33:59.456Z,99353.78
2022-12-28T02:35:08.302Z,99348.75
2022-12-28T02:36:18.335Z,99341.97
2022-12-28T02:37:24.676Z,99338.66
2022-12-28T02:38:28.879Z,99336.13
2022-12-28T02:39:36.561Z,99330.25
2022-12-28T02:40:43.927Z,99329.44
2022-12-28T02:41:47.086Z,99331.22
2022-12-28T02:42:52.051Z,99327.00
2022-12-28T02:43:54.706Z,99327.88
2022-12-28T02:45:15.490Z,99330.50
2022-12-28T02:46:39.110Z,99316.13
2022-12-28T02:48:00.810Z,99323.03
2022-12-28T02:49:36.178Z,99328.31
2022-12-28T02:50:47.013Z,99327.56
2022-12-28T02:51:58.750Z,99331.03
2022-12-28T02:53:18.501Z,99333.69
2022-12-28T02:55:04.279Z,99327.84
2022-12-28T02:56:16.091Z,99322.88
2022-12-28T02:57:32.075Z,99320.31
2022-12-28T02:59:12.617Z,99315.28
2022-12-28T03:00:16.843Z,99319.59
2022-12-28T03:01:33.544Z,99316.25
2022-12-28T03:02:46.984Z,99317.97
2022-12-28T03:04:04.190Z,99313.75
2022-12-28T03:05:11.438Z,99312.94
2022-12-28T03:06:34.398Z,99301.88
2022-12-28T03:08:00.852Z,99295.91
2022-12-28T03:09:07.391Z,99301.03
2022-12-28T03:10:13.005Z,99307.00
2022-12-28T03:11:18.668Z,99297.63
2022-12-28T03:12:26.610Z,99297.66
2022-12-28T03:13:45.559Z,99300.22
2022-12-28T03:14:58.689Z,99294.31
2022-12-28T03:16:07.144Z,99301.16
2022-12-28T03:17:29.596Z,99297.69
2022-12-28T03:18:51.184Z,99300.31
2022-12-28T03:20:16.087Z,99298.63
2022-12-28T03:21:37.108Z,99307.19
2022-12-28T03:23:02.038Z,99300.31
2022-12-28T03:24:23.840Z,99308.72
2022-12-28T03:25:46.589Z,99320.63
2022-12-28T03:27:09.948Z,99318.78
2022-12-28T03:28:42.834Z,99321.22
2022-12-28T03:30:07.880Z,99324.50
2022-12-28T03:31:15.060Z,99324.44
2022-12-28T03:32:23.681Z,99316.72
2022-12-28T03:33:26.512Z,99323.44
2022-12-28T03:34:28.559Z,99316.34
2022-12-28T03:35:38.858Z,99315.13
2022-12-28T03:36:44.813Z,99310.50
2022-12-28T03:37:52.550Z,99312.78
2022-12-28T03:39:00.879Z,99306.53
2022-12-28T03:40:11.363Z,99298.59
2022-12-28T03:41:15.205Z,99297.53
2022-12-28T03:42:44.597Z,99297.25
2022-12-28T03:43:50.316Z,99293.53
2022-12-28T03:44:55.574Z,99283.91
2022-12-28T03:46:04.859Z,99286.22
2022-12-28T03:47:09.124Z,99294.50
2022-12-28T03:48:14.060Z,99291.66
2022-12-28T03:49:17.359Z,99294.88
2022-12-28T03:50:19.850Z,99293.00
2022-12-28T03:51:24.960Z,99290.38
2022-12-28T03:52:29.025Z,99285.09
2022-12-28T03:53:39.607Z,99286.72
2022-12-28T03:54:45.505Z,99283.19
2022-12-28T03:55:51.042Z,99282.28
2022-12-28T03:56:54.898Z,99284.75
2022-12-28T03:58:03.006Z,99276.97
2022-12-28T03:59:06.659Z,99283.66
2022-12-28T04:00:15.222Z,99283.66
2022-12-28T04:01:22.958Z,99280.13
2022-12-28T04:02:25.292Z,99282.69
2022-12-28T04:03:29.554Z,99284.38
2022-12-28T04:04:31.434Z,99275.75
2022-12-28T04:05:34.236Z,99280.03
2022-12-28T04:06:36.129Z,99286.84
2022-12-28T04:07:39.070Z,99279.16
2022-12-28T04:08:41.851Z,99277.34
2022-12-28T04:09:44.619Z,99276.50
2022-12-28T04:10:47.135Z,99279.06
2022-12-28T04:11:50.111Z,99277.34
2022-12-28T04:13:00.222Z,99267.16
2022-12-28T04:14:20.490Z,99264.53
2022-12-28T04:15:23.855Z,99263.69
2022-12-28T04:16:27.402Z,99265.34
2022-12-28T04:17:29.778Z,99269.66
2022-12-28T04:18:34.630Z,99267.06
2022-12-28T04:19:36.546Z,99273.13
2022-12-28T04:20:39.557Z,99272.34
2022-12-28T04:21:41.483Z,99270.66
2022-12-28T04:22:44.599Z,99265.56
2022-12-28T04:23:46.903Z,99271.53
2022-12-28T04:24:52.456Z,99270.69
2022-12-28T04:25:58.732Z,99270.75
2022-12-28T04:27:01.985Z,99265.63
2022-12-28T04:28:04.894Z,99257.91
2022-12-28T04:29:28.524Z,99241.69
2022-12-28T04:30:34.498Z,99239.13
2022-12-28T04:31:37.434Z,99239.19
2022-12-28T04:32:42.969Z,99237.47
2022-12-28T04:33:47.248Z,99236.69
2022-12-28T04:34:49.309Z,99248.69
2022-12-28T04:35:54.551Z,99239.34
2022-12-28T04:36:57.784Z,99238.56
2022-12-28T04:37:59.631Z,99238.66
2022-12-28T04:39:02.440Z,99243.00
2022-12-28T04:40:05.164Z,99240.50
2022-12-28T04:41:08.917Z,99242.25
2022-12-28T04:42:10.671Z,99244.09
2022-12-28T04:43:13.747Z,99244.09
2022-12-28T04:44:15.622Z,99245.91
2022-12-28T04:45:22.125Z,99245.97
2022-12-28T04:46:25.019Z,99234.94
2022-12-28T04:47:27.878Z,99237.59
2022-12-28T04:48:30.110Z,99233.41
2022-12-28T04:49:34.223Z,99230.94
2022-12-28T04:50:36.747Z,99233.63
2022-12-28T04:51:39.866Z,99232.88
2022-12-28T04:52:42.514Z,99230.38
2022-12-28T04:53:45.377Z,99223.63
2022-12-28T04:54:47.132Z,99230.50
2022-12-28T04:55:50.162Z,99222.88
2022-12-28T04:56:52.017Z,99233.97
2022-12-28T04:57:54.834Z,99227.16
2022-12-28T04:58:59.923Z,99237.44
2022-12-28T05:00:02.749Z,99244.22
2022-12-28T05:01:05.511Z,99239.16
2022-12-28T05:02:08.702Z,99228.97
2022-12-28T05:03:10.561Z,99237.56
2022-12-28T05:04:14.070Z,99237.63
2022-12-28T05:05:17.463Z,99234.28
2022-12-28T05:06:22.232Z,99239.47
2022-12-28T05:07:24.023Z,99240.44
2022-12-28T05:08:27.347Z,99243.13
2022-12-28T05:09:29.120Z,99245.75
2022-12-28T05:10:31.994Z,99235.66
2022-12-28T05:11:33.895Z,99228.91
2022-12-28T05:12:37.018Z,99225.53
2022-12-28T05:13:38.888Z,99224.75
2022-12-28T05:14:42.207Z,99224.75
2022-12-28T05:15:44.024Z,99220.44
2022-12-28T05:16:46.739Z,99217.94
2022-12-28T05:17:48.601Z,99212.84
2022-12-28T05:18:51.523Z,99216.28
2022-12-28T05:19:53.356Z,99213.78
2022-12-28T05:21:01.665Z,99226.66
2022-12-28T05:22:03.676Z,99215.63
2022-12-28T05:23:07.168Z,99214.94
2022-12-28T05:24:09.364Z,99215.19
2022-12-28T05:25:12.108Z,99217.09
2022-12-28T05:26:16.507Z,99224.09
2022-12-28T05:27:19.367Z,99216.56
2022-12-28T05:28:21.193Z,99217.47
2022-12-28T05:29:24.438Z,99216.69
2022-12-28T05:30:26.657Z,99216.78
2022-12-28T05:31:29.504Z,99216.03
2022-12-28T05:32:31.336Z,99217.81
2022-12-28T05:33:35.822Z,99210.25
2022-12-28T05:34:37.730Z,99209.56
2022-12-28T05:35:40.680Z,99205.44
2022-12-28T05:36:44.151Z,99200.47
2022-12-28T05:37:46.921Z,99203.13
2022-12-28T05:38:48.770Z,99202.47
2022-12-28T05:39:52.273Z,99205.25
2022-12-28T05:40:54.414Z,99213.94
2022-12-28T05:42:00.081Z,99204.66
2022-12-28T05:43:21.201Z,99206.59
2022-12-28T05:44:23.037Z,99204.97
2022-12-28T05:45:25.849Z,99205.03
2022-12-28T05:46:29.513Z,99206.81
2022-12-28T05:47:32.375Z,99204.34
2022-12-28T05:48:35.376Z,99200.97
2022-12-28T05:49:38.176Z,99199.28
2022-12-28T05:50:40.860Z,99194.97
2022-12-28T05:51:44.991Z,99192.38
2022-12-28T05:52:46.913Z,99191.50
2022-12-28T05:53:49.946Z,99192.34
2022-12-28T05:54:51.736Z,99199.13
2022-12-28T05:55:54.736Z,99194.03
2022-12-28T05:56:57.628Z,99199.13
2022-12-28T05:57:59.392Z,99197.47
2022-12-28T05:59:03.847Z,99197.50
2022-12-28T06:00:07.214Z,99198.34
2022-12-28T06:01:16.671Z,99198.34
2022-12-28T06:02:24.396Z,99200.91
2022-12-28T06:03:27.612Z,99200.06
2022-12-28T06:04:29.624Z,99206.06
2022-12-28T06:05:32.409Z,99192.50
2022-12-28T06:06:35.903Z,99195.06
2022-12-28T06:07:40.366Z,99200.19
2022-12-28T06:08:43.352Z,99195.91
2022-12-28T06:09:46.201Z,99189.91
2022-12-28T06:10:47.987Z,99195.81
2022-12-28T06:11:50.910Z,99191.56
2022-12-28T06:12:52.752Z,99192.34
2022-12-28T06:13:55.862Z,99185.47
2022-12-28T06:14:58.675Z,99176.09
2022-12-28T06:16:05.596Z,99186.38
2022-12-28T06:17:08.470Z,99189.00
2022-12-28T06:18:10.707Z,99180.50
2022-12-28T06:19:14.713Z,99176.28
2022-12-28T06:20:16.915Z,99183.06
2022-12-28T06:21:21.948Z,99179.63
2022-12-28T06:22:23.739Z,99171.09
2022-12-28T06:23:27.851Z,99180.50
2022-12-28T06:24:29.891Z,99180.50
2022-12-28T06:25:32.687Z,99189.94
2022-12-28T06:26:35.966Z,99179.72
2022-12-28T06:27:38.853Z,99179.72
2022-12-28T06:28:41.728Z,99180.66
2022-12-28T06:29:44.454Z,99176.44
2022-12-28T06:30:52.222Z,99183.28
2022-12-28T06:31:56.571Z,99179.13
2022-12-28T06:32:58.427Z,99180.00
2022-12-28T06:34:02.316Z,99174.91
2022-12-28T06:35:04.704Z,99178.31
2022-12-28T06:36:19.349Z,99172.38
2022-12-28T06:37:22.935Z,99174.09
2022-12-28T06:38:27.137Z,99174.97
2022-12-28T06:39:30.211Z,99174.13
2022-12-28T06:41:02.406Z,99170.75
2022-12-28T06:41:55.119Z,99161.44
2022-12-28T06:42:57.223Z,99168.19
2022-12-28T06:44:00.417Z,99163.84
2022-12-28T06:45:02.193Z,99177.38
2022-12-28T06:46:05.732Z,99165.34
2022-12-28T06:47:08.630Z,99160.13
2022-12-28T06:48:10.587Z,99158.31
2022-12-28T06:49:13.343Z,99161.59
2022-12-28T06:50:15.747Z,99165.72
2022-12-28T06:51:20.060Z,99158.69
2022-12-28T06:52:22.158Z,99159.31
2022-12-28T06:53:25.452Z,99165.94
2022-12-28T06:54:29.595Z,99159.78
2022-12-28T06:55:31.363Z,99159.63
2022-12-28T06:56:35.628Z,99159.53
2022-12-28T06:57:37.401Z,99161.13
2022-12-28T06:58:40.718Z,99152.47
2022-12-28T06:59:42.534Z,99154.91
2022-12-28T07:00:45.564Z,99156.53
2022-12-28T07:01:47.573Z,99157.25
2022-12-28T07:02:50.604Z,99156.34
2022-12-28T07:03:54.277Z,99154.50
2022-12-28T07:04:57.016Z,99154.38
2022-12-28T07:06:00.129Z,99155.16
2022-12-28T07:07:03.006Z,99148.22
2022-12-28T07:08:09.185Z,99153.22
2022-12-28T07:09:17.387Z,99150.50
2022-12-28T07:10:20.582Z,99146.97
2022-12-28T07:11:23.437Z,99146.84
2022-12-28T07:12:25.203Z,99150.16
2022-12-28T07:13:28.395Z,99146.63
2022-12-28T07:14:32.293Z,99149.91
2022-12-28T07:15:35.460Z,99151.44
2022-12-28T07:17:39.335Z,99150.28
2022-12-28T07:18:42.852Z,99149.25
2022-12-28T07:19:44.702Z,99156.78
2022-12-28T07:20:47.500Z,99146.41
2022-12-28T07:21:50.817Z,99144.56
2022-12-28T07:22:53.349Z,99148.66
2022-12-28T07:23:56.879Z,99145.09
2022-12-28T07:24:58.716Z,99149.31
2022-12-28T07:26:07.438Z,99139.78
2022-12-28T07:27:10.215Z,99142.31
2022-12-28T07:28:12.264Z,99143.88
2022-12-28T07:29:15.035Z,99134.41
2022-12-28T07:30:17.878Z,99141.16
2022-12-28T07:31:22.406Z,99137.66
2022-12-28T07:32:24.259Z,99136.72
2022-12-28T07:33:27.054Z,99139.13
2022-12-28T07:34:28.983Z,99138.22
2022-12-28T07:35:31.690Z,99135.53
2022-12-28T07:36:33.717Z,99136.28
2022-12-28T07:37:36.616Z,99135.22
2022-12-28T07:38:38.465Z,99135.84
2022-12-28T07:39:41.228Z,99129.66
2022-12-28T07:40:43.039Z,99132.06
2022-12-28T07:41:47.230Z,99128.47
2022-12-28T07:42:55.379Z,99134.28
2022-12-28T07:43:58.492Z,99131.56
2022-12-28T07:45:01.320Z,99128.81
2022-12-28T07:46:03.366Z,99127.84
2022-12-28T07:47:06.244Z,99126.00
2022-12-28T07:48:08.158Z,99130.09
2022-12-28T07:49:10.973Z,99123.09
2022-12-28T07:50:13.156Z,99128.06
2022-12-28T07:51:17.392Z,99132.19
2022-12-28T07:52:19.362Z,99129.53
2022-12-28T07:53:22.617Z,99133.72
2022-12-28T07:54:25.692Z,99125.94
2022-12-28T07:55:29.807Z,99130.97
2022-12-28T07:57:38.311Z,99131.66
2022-12-28T07:59:45.300Z,99132.25
2022-12-28T08:00:48.237Z,99127.91
2022-12-28T08:01:51.836Z,99126.03
2022-12-28T08:02:56.179Z,99125.94
2022-12-28T08:04:00.638Z,99136.13
2022-12-28T08:05:02.635Z,99120.56
2022-12-28T08:06:07.144Z,99123.88
2022-12-28T08:07:10.142Z,99122.06
2022-12-28T08:08:12.257Z,99123.72
2022-12-28T08:09:16.168Z,99122.78
2022-12-28T08:10:17.988Z,99123.56
2022-12-28T08:11:22.724Z,99123.38
2022-12-28T08:12:25.139Z,99120.72
2022-12-28T08:13:31.769Z,99128.25
2022-12-28T08:14:35.227Z,99125.63
2022-12-28T08:15:37.566Z,99119.47
2022-12-28T08:16:41.887Z,99123.59
2022-12-28T08:17:43.902Z,99124.25
2022-12-28T08:18:47.509Z,99118.13
2022-12-28T08:19:50.186Z,99115.38
2022-12-28T08:20:53.018Z,99121.19
2022-12-28T08:21:56.026Z,99116.69
2022-12-28T08:22:58.044Z,99119.09
2022-12-28T08:24:01.700Z,99120.66
2022-12-28T08:25:03.906Z,99118.72
2022-12-28T08:26:08.686Z,99126.22
2022-12-28T08:27:10.684Z,99119.16
2022-12-28T08:28:13.948Z,99120.63
2022-12-28T08:29:19.827Z,99111.97
2022-12-28T08:30:22.820Z,99112.63
2022-12-28T08:31:26.676Z,99115.00
2022-12-28T08:32:29.533Z,99119.06
2022-12-28T08:33:31.441Z,99123.19
2022-12-28T08:34:34.351Z,99124.66
2022-12-28T08:35:36.587Z,99121.06
2022-12-28T08:36:39.572Z,99118.31
2022-12-28T08:37:41.722Z,99123.22
2022-12-28T08:38:46.035Z,99115.31
2022-12-28T08:39:49.145Z,99111.63
2022-12-28T08:40:57.554Z,99114.84
2022-12-28T08:42:01.708Z,99119.75
2022-12-28T08:43:03.877Z,99116.06
2022-12-28T08:44:07.504Z,99113.28
2022-12-28T08:45:12.563Z,99112.31
2022-12-28T08:46:16.633Z,99107.03
2022-12-28T08:47:20.118Z,99114.53
2022-12-28T08:48:22.169Z,99111.00
2022-12-28T08:49:25.028Z,99104.00
2022-12-28T08:50:31.556Z,99113.28
2022-12-28T08:51:37.643Z,99107.19
2022-12-28T08:52:39.614Z,99116.50
2022-12-28T08:53:42.801Z,99107.84
2022-12-28T08:54:45.603Z,99107.81
2022-12-28T08:55:47.625Z,99109.31
2022-12-28T08:56:50.872Z,99113.44
2022-12-28T08:57:52.727Z,99113.31
2022-12-28T08:58:56.216Z,99110.66
2022-12-28T08:59:58.082Z,99114.84
2022-12-28T09:01:08.390Z,99105.28
2022-12-28T09:02:13.800Z,99105.19
2022-12-28T09:03:16.182Z,99108.47
2022-12-28T09:04:22.782Z,99110.06
2022-12-28T09:05:24.690Z,99112.44
2022-12-28T09:06:31.410Z,99109.66
2022-12-28T09:07:33.380Z,99108.69
2022-12-28T09:08:36.377Z,99107.66
2022-12-28T09:09:38.661Z,99110.91
2022-12-28T09:10:41.795Z,99107.34
2022-12-28T09:11:47.631Z,99109.00
2022-12-28T09:12:50.935Z,99108.84
2022-12-28T09:13:53.000Z,99103.56
2022-12-28T09:14:55.912Z,99103.41
2022-12-28T09:15:58.570Z,99112.66
2022-12-28T09:17:03.163Z,99102.91
2022-12-28T09:18:07.416Z,99106.16
2022-12-28T09:19:14.474Z,99115.44
2022-12-28T09:20:18.009Z,99108.38
2022-12-28T09:21:21.118Z,99115.13
2022-12-28T09:22:24.056Z,99116.81
2022-12-28T09:23:28.859Z,99104.66
2022-12-28T09:24:31.828Z,99114.84
2022-12-28T09:25:34.981Z,99113.03
2022-12-28T09:26:39.131Z,99116.22
2022-12-28T09:27:41.246Z,99113.50
2022-12-28T09:28:46.037Z,99116.75
2022-12-28T09:29:49.604Z,99108.03
2022-12-28T09:30:51.688Z,99103.59
2022-12-28T09:31:54.595Z,99111.28
2022-12-28T09:33:12.719Z,99105.97
2022-12-28T09:35:38.466Z,99098.97
2022-12-28T09:36:43.307Z,99092.06
2022-12-28T09:37:46.198Z,99091.16
2022-12-28T09:38:49.039Z,99096.16
2022-12-28T09:39:54.566Z,99088.34
2022-12-28T09:40:58.647Z,99095.19
2022-12-28T09:42:04.299Z,99101.88
2022-12-28T09:43:06.281Z,99094.03
2022-12-28T09:44:21.095Z,99100.88
2022-12-28T09:45:26.870Z,99099.13
2022-12-28T09:46:29.947Z,99098.28
2022-12-28T09:47:38.492Z,99095.78
2022-12-28T09:48:42.327Z,99098.38
2022-12-28T09:49:48.637Z,99087.19
2022-12-28T09:50:52.037Z,99087.19
2022-12-28T09:51:57.586Z,99085.44
2022-12-28T09:53:20.891Z,99083.69
2022-12-28T09:54:24.245Z,99085.38
2022-12-28T09:55:27.112Z,99080.19
2022-12-28T09:56:34.342Z,99080.94
2022-12-28T09:57:39.277Z,99084.38
2022-12-28T09:58:45.152Z,99086.97
2022-12-28T09:59:51.016Z,99085.22
2022-12-28T10:00:54.816Z,99085.97
2022-12-28T10:02:00.695Z,99084.13
2022-12-28T10:03:05.606Z,99089.25
2022-12-28T10:04:12.683Z,99086.56
2022-12-28T10:05:15.955Z,99080.47
2022-12-28T10:06:23.415Z,99077.75
2022-12-28T10:07:25.435Z,99087.16
2022-12-28T10:08:29.001Z,99081.09
2022-12-28T10:09:34.864Z,99084.44
2022-12-28T10:10:36.770Z,99080.84
2022-12-28T10:11:42.813Z,99091.09
2022-12-28T10:12:45.762Z,99078.19
2022-12-28T10:13:55.140Z,99076.38
2022-12-28T10:15:00.042Z,99067.78
2022-12-28T10:16:04.752Z,99071.09
2022-12-28T10:17:09.451Z,99068.44
2022-12-28T10:18:12.875Z,99070.13
2022-12-28T10:19:20.009Z,99065.69
2022-12-28T10:20:22.609Z,99062.13
2022-12-28T10:21:32.718Z,99067.13
2022-12-28T10:22:38.578Z,99067.03
2022-12-28T10:23:56.694Z,99064.44
2022-12-28T10:25:04.105Z,99067.97
2022-12-28T10:26:06.583Z,99063.63
2022-12-28T10:27:14.670Z,99060.22
2022-12-28T10:28:17.088Z,99056.78
2022-12-28T10:29:21.747Z,99056.88
2022-12-28T10:30:27.309Z,99050.88
2022-12-28T10:31:59.382Z,99053.53
2022-12-28T10:33:03.814Z,99045.03
2022-12-28T10:34:14.427Z,99041.63
2022-12-28T10:35:27.050Z,99042.44
2022-12-28T10:36:35.123Z,99037.28
2022-12-28T10:37:44.488Z,99037.38
2022-12-28T10:38:52.095Z,99038.19
2022-12-28T10:39:56.809Z,99029.63
2022-12-28T10:41:01.177Z,99032.25
2022-12-28T10:42:05.123Z,99027.94
2022-12-28T10:43:19.343Z,99020.09
2022-12-28T10:44:39.496Z,99019.28
2022-12-28T10:45:48.020Z,99009.78
2022-12-28T10:46:52.215Z,99011.44
2022-12-28T10:47:57.088Z,99007.00
2022-12-28T10:49:01.200Z,99004.41
2022-12-28T10:51:31.157Z,98999.94
2022-12-28T10:52:33.015Z,98998.19
2022-12-28T10:53:43.448Z,98993.00
2022-12-28T10:54:50.266Z,98989.50
2022-12-28T10:56:21.298Z,98990.44
2022-12-28T10:57:30.723Z,98996.41
2022-12-28T10:58:34.451Z,98991.19
2022-12-28T10:59:39.646Z,98986.75
2022-12-28T11:00:44.563Z,98984.91
2022-12-28T11:01:51.906Z,98981.34
2022-12-28T11:02:55.184Z,98978.66
2022-12-28T11:04:05.633Z,98976.00
2022-12-28T11:05:20.538Z,98971.59
2022-12-28T11:06:27.365Z,98965.41
2022-12-28T11:07:35.093Z,98967.94
2022-12-28T11:08:37.342Z,98969.50
2022-12-28T11:09:40.937Z,98970.25
2022-12-28T11:10:42.956Z,98963.16
2022-12-28T11:11:47.352Z,98960.50
2022-12-28T11:12:50.210Z,98954.41
2022-12-28T11:13:57.118Z,98954.22
2022-12-28T11:14:59.295Z,98951.56
2022-12-28T11:16:02.274Z,98947.22
2022-12-28T11:17:16.219Z,98947.97
2022-12-28T11:18:19.095Z,98943.63
2022-12-28T11:19:22.989Z,98942.69
2022-12-28T11:20:29.920Z,98935.72
2022-12-28T11:21:33.920Z,98936.44
2022-12-28T11:22:38.585Z,98937.19
2022-12-28T11:23:40.627Z,98931.94
2022-12-28T11:24:43.568Z,98936.91
2022-12-28T11:25:45.574Z,98937.69
2022-12-28T11:26:50.446Z,98936.66
2022-12-28T11:27:52.475Z,98937.50
2022-12-28T11:28:56.207Z,98937.31
2022-12-28T11:29:58.513Z,98936.34
2022-12-28T11:31:04.243Z,98930.03
2022-12-28T11:32:11.929Z,98926.47
2022-12-28T11:33:26.359Z,98922.78
2022-12-28T11:34:30.487Z,98925.19
2022-12-28T11:35:34.909Z,98918.91
2022-12-28T11:36:43.352Z,98925.59
2022-12-28T11:37:54.442Z,98919.31
2022-12-28T11:38:57.348Z,98920.97
2022-12-28T11:39:59.202Z,98913.84
2022-12-28T11:41:01.983Z,98920.59
2022-12-28T11:42:38.443Z,98916.09
2022-12-28T11:43:40.187Z,98913.31
2022-12-28T11:44:51.380Z,98907.97
2022-12-28T11:45:54.470Z,98910.19
2022-12-28T11:47:01.839Z,98908.97
2022-12-28T11:48:37.373Z,98894.00
2022-12-28T11:49:40.700Z,98891.25
2022-12-28T11:50:53.267Z,98888.38
2022-12-28T11:52:34.065Z,98889.84
2022-12-28T11:53:53.793Z,98889.38
2022-12-28T11:54:57.620Z,98891.41
2022-12-28T11:56:05.416Z,98882.88
2022-12-28T11:57:11.171Z,98882.09
2022-12-28T11:58:49.689Z,98875.69
2022-12-28T11:59:52.866Z,98873.78
2022-12-28T12:00:54.885Z,98870.50
2022-12-28T12:01:59.006Z,98874.16
2022-12-28T12:03:01.874Z,98875.66
2022-12-28T12:04:11.736Z,98873.69
2022-12-28T12:05:56.441Z,98873.59
2022-12-28T12:07:15.746Z,98867.25
2022-12-28T12:08:40.943Z,98863.78
2022-12-28T12:09:46.590Z,98856.94
2022-12-28T12:10:50.166Z,98863.88
2022-12-28T12:11:53.178Z,98865.44
2022-12-28T12:12:56.713Z,98864.41
2022-12-28T12:14:00.709Z,98868.66
2022-12-28T12:15:09.170Z,98854.81
2022-12-28T12:16:24.329Z,98849.63
2022-12-28T12:17:36.815Z,98847.72
2022-12-28T12:18:46.393Z,98848.34
2022-12-28T12:19:50.640Z,98838.75
2022-12-28T12:20:55.849Z,98831.63
2022-12-28T12:22:02.708Z,98832.06
2022-12-28T12:23:07.760Z,98824.28
2022-12-28T12:27:36.589Z,98814.91
2022-12-28T12:28:41.251Z,98825.81
2022-12-28T12:29:46.524Z,98825.09
2022-12-28T12:30:49.034Z,98823.44
2022-12-28T12:31:57.527Z,98821.78
2022-12-28T12:33:03.871Z,98817.03
2022-12-28T12:34:13.310Z,98822.59
2022-12-28T12:35:23.265Z,98822.22
2022-12-28T12:36:47.937Z,98815.09
2022-12-28T12:37:55.015Z,98808.19
2022-12-28T12:39:12.610Z,98808.25
2022-12-28T12:40:29.564Z,98803.13
2022-12-28T12:41:38.604Z,98808.38
2022-12-28T12:42:56.975Z,98811.63
2022-12-28T12:44:10.908Z,98795.16
2022-12-28T12:45:23.336Z,98805.38
2022-12-28T12:46:41.806Z,98797.19
2022-12-28T12:48:17.562Z,98801.50
2022-12-28T12:49:34.983Z,98811.78
2022-12-28T12:50:55.107Z,98811.63
2022-12-28T12:52:03.208Z,98811.53
2022-12-28T12:53:10.891Z,98812.91
2022-12-28T12:54:27.339Z,98819.47
2022-12-28T12:55:48.497Z,98811.22
2022-12-28T12:56:55.192Z,98811.66
2022-12-28T12:58:03.074Z,98807.72
2022-12-28T12:59:20.490Z,98804.59
2022-12-28T13:00:24.134Z,98800.47
2022-12-28T13:01:32.884Z,98807.63
2022-12-28T13:02:52.059Z,98801.78
2022-12-28T13:03:56.600Z,98799.41
2022-12-28T13:05:02.296Z,98804.91
2022-12-28T13:06:06.287Z,98805.75